sensor_id;sensor_type;location;lat;lon;timestamp;P1;durP1;ratioP1;P2;durP2;ratioP2
24409;SDS011;12543;53.364;-1.504;2022-12-15T00:01:58;4.72;;;1.17;;
24409;SDS011;12543;53.364;-1.504;2022-12-15T00:04:45;3.00;;;1.00;;
24409;SDS011;12543;53.364;-1.504;2022-12-15T00:07:31;2.90;;;1.02;;
24409;SDS011;12543;53.364;-1.504;2022-12-15T00:10:17;5.30;;;1.02;;
24409;SDS011;12543;53.364;-1.504;2022-12-15T00:13:10;3.05;;;1.00;;
24409;SDS011;12543;53.364;-1.504;2022-12-15T00:15:57;2.92;;;1.20;;
24409;SDS011;12543;53.364;-1.504;2022-12-15T00:18:43;3.20;;;1.10;;
24409;SDS011;12543;53.364;-1.504;2022-12-15T00:21:28;4.55;;;1.20;;
24409;SDS011;12543;53.364;-1.504;2022-12-15T00:24:14;2.30;;;0.82;;
24409;SDS011;12543;53.364;-1.504;2022-12-15T00:27:00;3.53;;;0.90;;
24409;SDS011;12543;53.364;-1.504;2022-12-15T00:29:45;2.38;;;0.80;;
24409;SDS011;12543;53.364;-1.504;2022-12-15T00:32:31;3.28;;;0.90;;
24409;SDS011;12543;53.364;-1.504;2022-12-15T00:35:16;2.13;;;0.70;;
24409;SDS011;12543;53.364;-1.504;2022-12-15T00:38:06;2.40;;;0.98;;
24409;SDS011;12543;53.364;-1.504;2022-12-15T00:41:01;3.95;;;1.23;;
24409;SDS011;12543;53.364;-1.504;2022-12-15T00:43:29;2.22;;;0.63;;
24409;SDS011;12543;53.364;-1.504;2022-12-15T00:45:58;2.65;;;0.90;;
24409;SDS011;12543;53.364;-1.504;2022-12-15T00:48:45;1.95;;;0.80;;
24409;SDS011;12543;53.364;-1.504;2022-12-15T00:51:13;2.10;;;0.73;;
24409;SDS011;12543;53.364;-1.504;2022-12-15T00:53:40;2.22;;;0.85;;
24409;SDS011;12543;53.364;-1.504;2022-12-15T00:56:26;1.25;;;0.60;;
24409;SDS011;12543;53.364;-1.504;2022-12-15T00:59:13;3.13;;;0.80;;
24409;SDS011;12543;53.364;-1.504;2022-12-15T01:01:59;1.98;;;0.60;;
24409;SDS011;12543;53.364;-1.504;2022-12-15T01:04:46;1.13;;;0.50;;
24409;SDS011;12543;53.364;-1.504;2022-12-15T01:07:32;1.92;;;0.70;;
24409;SDS011;12543;53.364;-1.504;2022-12-15T01:10:18;3.55;;;0.70;;
24409;SDS011;12543;53.364;-1.504;2022-12-15T01:13:03;1.65;;;0.60;;
24409;SDS011;12543;53.364;-1.504;2022-12-15T01:15:49;2.20;;;0.70;;
24409;SDS011;12543;53.364;-1.504;2022-12-15T01:18:35;1.58;;;0.60;;
24409;SDS011;12543;53.364;-1.504;2022-12-15T01:21:21;3.53;;;0.70;;
24409;SDS011;12543;53.364;-1.504;2022-12-15T01:23:50;2.45;;;0.50;;
24409;SDS011;12543;53.364;-1.504;2022-12-15T01:26:18;3.65;;;1.00;;
24409;SDS011;12543;53.364;-1.504;2022-12-15T01:28:45;2.65;;;0.55;;
24409;SDS011;12543;53.364;-1.504;2022-12-15T01:31:12;1.70;;;0.60;;
24409;SDS011;12543;53.364;-1.504;2022-12-15T01:33:39;4.53;;;1.50;;
24409;SDS011;12543;53.364;-1.504;2022-12-15T01:36:09;1.90;;;0.68;;
24409;SDS011;12543;53.364;-1.504;2022-12-15T01:38:36;1.55;;;0.60;;
24409;SDS011;12543;53.364;-1.504;2022-12-15T01:41:05;2.85;;;1.00;;
24409;SDS011;12543;53.364;-1.504;2022-12-15T01:43:35;2.33;;;0.85;;
24409;SDS011;12543;53.364;-1.504;2022-12-15T01:46:14;2.58;;;0.70;;
24409;SDS011;12543;53.364;-1.504;2022-12-15T01:51:25;2.83;;;0.70;;
24409;SDS011;12543;53.364;-1.504;2022-12-15T01:56:59;3.42;;;1.00;;
24409;SDS011;12543;53.364;-1.504;2022-12-15T01:59:38;3.35;;;0.90;;
24409;SDS011;12543;53.364;-1.504;2022-12-15T02:02:14;2.42;;;1.00;;
24409;SDS011;12543;53.364;-1.504;2022-12-15T02:04:43;2.50;;;0.88;;
24409;SDS011;12543;53.364;-1.504;2022-12-15T02:07:14;2.08;;;0.82;;
24409;SDS011;12543;53.364;-1.504;2022-12-15T02:09:42;3.03;;;0.95;;
24409;SDS011;12543;53.364;-1.504;2022-12-15T02:29:10;1.52;;;0.60;;
24409;SDS011;12543;53.364;-1.504;2022-12-15T02:31:51;5.07;;;0.85;;
24409;SDS011;12543;53.364;-1.504;2022-12-15T02:34:34;2.17;;;0.70;;
24409;SDS011;12543;53.364;-1.504;2022-12-15T02:39:51;0.93;;;0.60;;
24409;SDS011;12543;53.364;-1.504;2022-12-15T02:42:18;1.38;;;0.60;;
24409;SDS011;12543;53.364;-1.504;2022-12-15T02:44:47;2.08;;;0.60;;
24409;SDS011;12543;53.364;-1.504;2022-12-15T02:50:08;2.20;;;0.65;;
24409;SDS011;12543;53.364;-1.504;2022-12-15T03:01:35;1.67;;;0.40;;
24409;SDS011;12543;53.364;-1.504;2022-12-15T03:04:07;3.22;;;0.80;;
24409;SDS011;12543;53.364;-1.504;2022-12-15T03:06:37;2.33;;;0.50;;
24409;SDS011;12543;53.364;-1.504;2022-12-15T03:09:04;1.13;;;0.50;;
24409;SDS011;12543;53.364;-1.504;2022-12-15T03:11:31;3.15;;;0.50;;
24409;SDS011;12543;53.364;-1.504;2022-12-15T03:13:59;2.20;;;0.60;;
24409;SDS011;12543;53.364;-1.504;2022-12-15T03:16:26;1.35;;;0.60;;
24409;SDS011;12543;53.364;-1.504;2022-12-15T03:18:53;2.00;;;0.60;;
24409;SDS011;12543;53.364;-1.504;2022-12-15T03:21:20;1.50;;;0.52;;
24409;SDS011;12543;53.364;-1.504;2022-12-15T03:23:47;2.33;;;0.40;;
24409;SDS011;12543;53.364;-1.504;2022-12-15T03:26:14;1.27;;;0.32;;
24409;SDS011;12543;53.364;-1.504;2022-12-15T03:28:41;1.17;;;0.60;;
24409;SDS011;12543;53.364;-1.504;2022-12-15T03:31:08;1.70;;;0.50;;
24409;SDS011;12543;53.364;-1.504;2022-12-15T03:33:35;1.08;;;0.50;;
24409;SDS011;12543;53.364;-1.504;2022-12-15T03:36:02;0.95;;;0.50;;
24409;SDS011;12543;53.364;-1.504;2022-12-15T03:38:30;0.70;;;0.50;;
24409;SDS011;12543;53.364;-1.504;2022-12-15T03:40:57;1.60;;;0.50;;
24409;SDS011;12543;53.364;-1.504;2022-12-15T03:43:23;1.30;;;0.50;;
24409;SDS011;12543;53.364;-1.504;2022-12-15T03:45:50;2.00;;;0.50;;
24409;SDS011;12543;53.364;-1.504;2022-12-15T03:48:17;0.73;;;0.40;;
24409;SDS011;12543;53.364;-1.504;2022-12-15T03:50:46;1.15;;;0.40;;
24409;SDS011;12543;53.364;-1.504;2022-12-15T03:53:14;2.28;;;0.80;;
24409;SDS011;12543;53.364;-1.504;2022-12-15T03:55:41;1.83;;;0.40;;
24409;SDS011;12543;53.364;-1.504;2022-12-15T03:58:08;1.92;;;0.65;;
24409;SDS011;12543;53.364;-1.504;2022-12-15T04:00:35;1.95;;;0.40;;
24409;SDS011;12543;53.364;-1.504;2022-12-15T04:07:15;1.13;;;0.60;;
24409;SDS011;12543;53.364;-1.504;2022-12-15T04:09:42;2.92;;;0.60;;
24409;SDS011;12543;53.364;-1.504;2022-12-15T04:12:09;2.75;;;0.68;;
24409;SDS011;12543;53.364;-1.504;2022-12-15T04:14:37;1.83;;;0.65;;
24409;SDS011;12543;53.364;-1.504;2022-12-15T04:17:10;2.50;;;0.60;;
24409;SDS011;12543;53.364;-1.504;2022-12-15T04:19:38;4.05;;;0.60;;
24409;SDS011;12543;53.364;-1.504;2022-12-15T04:22:23;1.60;;;0.60;;
24409;SDS011;12543;53.364;-1.504;2022-12-15T04:24:50;1.67;;;0.57;;
24409;SDS011;12543;53.364;-1.504;2022-12-15T04:27:36;1.88;;;0.65;;
24409;SDS011;12543;53.364;-1.504;2022-12-15T04:30:27;3.50;;;0.85;;
24409;SDS011;12543;53.364;-1.504;2022-12-15T04:33:13;2.08;;;1.00;;
24409;SDS011;12543;53.364;-1.504;2022-12-15T04:36:00;3.17;;;0.60;;
24409;SDS011;12543;53.364;-1.504;2022-12-15T04:38:46;0.40;;;0.30;;
24409;SDS011;12543;53.364;-1.504;2022-12-15T04:41:31;2.30;;;0.43;;
24409;SDS011;12543;53.364;-1.504;2022-12-15T04:44:17;1.58;;;0.47;;
24409;SDS011;12543;53.364;-1.504;2022-12-15T04:47:03;2.28;;;0.40;;
24409;SDS011;12543;53.364;-1.504;2022-12-15T04:49:48;2.03;;;0.57;;
24409;SDS011;12543;53.364;-1.504;2022-12-15T04:52:34;1.50;;;0.60;;
24409;SDS011;12543;53.364;-1.504;2022-12-15T04:55:19;0.77;;;0.40;;
24409;SDS011;12543;53.364;-1.504;2022-12-15T04:58:06;0.82;;;0.38;;
24409;SDS011;12543;53.364;-1.504;2022-12-15T05:00:52;2.75;;;0.45;;
24409;SDS011;12543;53.364;-1.504;2022-12-15T05:03:38;1.15;;;0.40;;
24409;SDS011;12543;53.364;-1.504;2022-12-15T05:06:24;3.58;;;0.50;;
24409;SDS011;12543;53.364;-1.504;2022-12-15T05:09:09;2.92;;;0.60;;
24409;SDS011;12543;53.364;-1.504;2022-12-15T05:11:55;1.30;;;0.52;;
24409;SDS011;12543;53.364;-1.504;2022-12-15T05:14:40;2.10;;;0.50;;
24409;SDS011;12543;53.364;-1.504;2022-12-15T05:17:26;2.33;;;0.93;;
24409;SDS011;12543;53.364;-1.504;2022-12-15T05:20:13;1.80;;;0.70;;
24409;SDS011;12543;53.364;-1.504;2022-12-15T05:22:58;1.48;;;0.57;;
24409;SDS011;12543;53.364;-1.504;2022-12-15T05:25:43;0.85;;;0.40;;
24409;SDS011;12543;53.364;-1.504;2022-12-15T05:28:30;1.98;;;0.40;;
24409;SDS011;12543;53.364;-1.504;2022-12-15T05:31:16;1.80;;;0.60;;
24409;SDS011;12543;53.364;-1.504;2022-12-15T05:34:01;0.95;;;0.40;;
24409;SDS011;12543;53.364;-1.504;2022-12-15T05:36:31;0.90;;;0.40;;
24409;SDS011;12543;53.364;-1.504;2022-12-15T05:38:58;1.38;;;0.50;;
24409;SDS011;12543;53.364;-1.504;2022-12-15T05:41:25;2.70;;;0.50;;
24409;SDS011;12543;53.364;-1.504;2022-12-15T05:43:52;2.33;;;0.60;;
24409;SDS011;12543;53.364;-1.504;2022-12-15T05:46:19;0.50;;;0.38;;
24409;SDS011;12543;53.364;-1.504;2022-12-15T05:48:46;3.30;;;0.45;;
24409;SDS011;12543;53.364;-1.504;2022-12-15T05:51:13;1.27;;;0.50;;
24409;SDS011;12543;53.364;-1.504;2022-12-15T05:53:40;5.45;;;0.55;;
24409;SDS011;12543;53.364;-1.504;2022-12-15T05:56:10;1.50;;;0.50;;
24409;SDS011;12543;53.364;-1.504;2022-12-15T05:58:38;1.23;;;0.50;;
24409;SDS011;12543;53.364;-1.504;2022-12-15T06:01:12;2.17;;;0.70;;
24409;SDS011;12543;53.364;-1.504;2022-12-15T06:03:41;0.98;;;0.60;;
24409;SDS011;12543;53.364;-1.504;2022-12-15T06:06:09;1.40;;;0.52;;
24409;SDS011;12543;53.364;-1.504;2022-12-15T06:11:05;0.93;;;0.50;;
24409;SDS011;12543;53.364;-1.504;2022-12-15T06:13:32;1.95;;;0.60;;
24409;SDS011;12543;53.364;-1.504;2022-12-15T06:16:01;1.70;;;0.80;;
24409;SDS011;12543;53.364;-1.504;2022-12-15T06:18:34;1.10;;;0.50;;
24409;SDS011;12543;53.364;-1.504;2022-12-15T06:21:04;3.05;;;0.70;;
24409;SDS011;12543;53.364;-1.504;2022-12-15T06:23:33;1.00;;;0.50;;
24409;SDS011;12543;53.364;-1.504;2022-12-15T06:26:18;2.92;;;0.60;;
24409;SDS011;12543;53.364;-1.504;2022-12-15T06:28:46;1.02;;;0.50;;
24409;SDS011;12543;53.364;-1.504;2022-12-15T06:31:13;1.65;;;0.50;;
24409;SDS011;12543;53.364;-1.504;2022-12-15T06:33:41;1.73;;;0.50;;
24409;SDS011;12543;53.364;-1.504;2022-12-15T06:36:12;3.70;;;0.60;;
24409;SDS011;12543;53.364;-1.504;2022-12-15T06:38:40;1.33;;;0.40;;
24409;SDS011;12543;53.364;-1.504;2022-12-15T06:41:15;2.90;;;0.55;;
24409;SDS011;12543;53.364;-1.504;2022-12-15T06:43:51;1.92;;;0.65;;
24409;SDS011;12543;53.364;-1.504;2022-12-15T06:46:21;2.10;;;0.85;;
24409;SDS011;12543;53.364;-1.504;2022-12-15T06:48:49;2.92;;;1.10;;
24409;SDS011;12543;53.364;-1.504;2022-12-15T06:51:16;3.50;;;1.20;;
24409;SDS011;12543;53.364;-1.504;2022-12-15T06:53:43;3.63;;;1.15;;
24409;SDS011;12543;53.364;-1.504;2022-12-15T06:56:18;2.70;;;1.30;;
24409;SDS011;12543;53.364;-1.504;2022-12-15T06:59:00;3.60;;;1.10;;
24409;SDS011;12543;53.364;-1.504;2022-12-15T07:01:29;1.75;;;1.08;;
24409;SDS011;12543;53.364;-1.504;2022-12-15T07:03:57;3.47;;;1.15;;
24409;SDS011;12543;53.364;-1.504;2022-12-15T07:06:36;2.53;;;1.10;;
24409;SDS011;12543;53.364;-1.504;2022-12-15T07:09:05;3.83;;;0.85;;
24409;SDS011;12543;53.364;-1.504;2022-12-15T07:11:34;3.85;;;0.95;;
24409;SDS011;12543;53.364;-1.504;2022-12-15T07:14:01;1.70;;;0.65;;
24409;SDS011;12543;53.364;-1.504;2022-12-15T07:16:29;1.92;;;0.70;;
24409;SDS011;12543;53.364;-1.504;2022-12-15T07:18:56;1.67;;;0.80;;
24409;SDS011;12543;53.364;-1.504;2022-12-15T07:21:23;2.90;;;0.80;;
24409;SDS011;12543;53.364;-1.504;2022-12-15T07:23:51;2.63;;;1.15;;
24409;SDS011;12543;53.364;-1.504;2022-12-15T07:26:21;3.47;;;0.82;;
24409;SDS011;12543;53.364;-1.504;2022-12-15T07:28:49;2.35;;;0.70;;
24409;SDS011;12543;53.364;-1.504;2022-12-15T07:31:16;2.00;;;0.60;;
24409;SDS011;12543;53.364;-1.504;2022-12-15T07:33:43;1.88;;;0.60;;
24409;SDS011;12543;53.364;-1.504;2022-12-15T07:36:11;2.28;;;0.70;;
24409;SDS011;12543;53.364;-1.504;2022-12-15T07:38:38;1.38;;;0.57;;
24409;SDS011;12543;53.364;-1.504;2022-12-15T07:41:06;0.63;;;0.40;;
24409;SDS011;12543;53.364;-1.504;2022-12-15T07:43:34;1.30;;;0.57;;
24409;SDS011;12543;53.364;-1.504;2022-12-15T07:46:03;2.45;;;0.77;;
24409;SDS011;12543;53.364;-1.504;2022-12-15T07:48:30;1.33;;;0.63;;
24409;SDS011;12543;53.364;-1.504;2022-12-15T07:50:58;1.80;;;0.60;;
24409;SDS011;12543;53.364;-1.504;2022-12-15T07:53:42;3.22;;;0.65;;
24409;SDS011;12543;53.364;-1.504;2022-12-15T07:56:09;1.35;;;0.80;;
24409;SDS011;12543;53.364;-1.504;2022-12-15T07:58:37;2.35;;;0.90;;
24409;SDS011;12543;53.364;-1.504;2022-12-15T08:01:05;1.95;;;0.80;;
24409;SDS011;12543;53.364;-1.504;2022-12-15T08:03:33;1.77;;;0.60;;
24409;SDS011;12543;53.364;-1.504;2022-12-15T08:06:06;2.92;;;0.85;;
24409;SDS011;12543;53.364;-1.504;2022-12-15T08:08:35;1.88;;;0.75;;
24409;SDS011;12543;53.364;-1.504;2022-12-15T08:11:04;2.17;;;0.73;;
24409;SDS011;12543;53.364;-1.504;2022-12-15T08:13:36;2.97;;;0.73;;
24409;SDS011;12543;53.364;-1.504;2022-12-15T08:16:23;1.75;;;0.93;;
24409;SDS011;12543;53.364;-1.504;2022-12-15T08:18:51;1.42;;;0.70;;
24409;SDS011;12543;53.364;-1.504;2022-12-15T08:21:18;2.63;;;0.80;;
24409;SDS011;12543;53.364;-1.504;2022-12-15T08:23:45;1.25;;;0.60;;
24409;SDS011;12543;53.364;-1.504;2022-12-15T08:26:14;2.45;;;0.75;;
24409;SDS011;12543;53.364;-1.504;2022-12-15T08:28:42;1.67;;;0.70;;
24409;SDS011;12543;53.364;-1.504;2022-12-15T08:31:12;1.90;;;0.70;;
24409;SDS011;12543;53.364;-1.504;2022-12-15T08:33:42;1.65;;;0.70;;
24409;SDS011;12543;53.364;-1.504;2022-12-15T08:36:10;1.85;;;0.70;;
24409;SDS011;12543;53.364;-1.504;2022-12-15T08:38:39;2.05;;;0.80;;
24409;SDS011;12543;53.364;-1.504;2022-12-15T08:41:08;1.48;;;0.70;;
24409;SDS011;12543;53.364;-1.504;2022-12-15T08:43:37;2.25;;;1.00;;
24409;SDS011;12543;53.364;-1.504;2022-12-15T08:46:13;3.67;;;1.17;;
24409;SDS011;12543;53.364;-1.504;2022-12-15T08:48:42;1.92;;;0.98;;
24409;SDS011;12543;53.364;-1.504;2022-12-15T08:51:09;2.28;;;1.00;;
24409;SDS011;12543;53.364;-1.504;2022-12-15T08:53:37;2.17;;;1.00;;
24409;SDS011;12543;53.364;-1.504;2022-12-15T08:56:08;1.50;;;0.70;;
24409;SDS011;12543;53.364;-1.504;2022-12-15T08:58:38;5.90;;;0.60;;
24409;SDS011;12543;53.364;-1.504;2022-12-15T09:01:10;4.40;;;0.90;;
24409;SDS011;12543;53.364;-1.504;2022-12-15T09:03:48;1.27;;;0.60;;
24409;SDS011;12543;53.364;-1.504;2022-12-15T09:06:19;3.20;;;0.80;;
24409;SDS011;12543;53.364;-1.504;2022-12-15T09:08:48;2.47;;;0.82;;
24409;SDS011;12543;53.364;-1.504;2022-12-15T09:11:16;3.35;;;0.77;;
24409;SDS011;12543;53.364;-1.504;2022-12-15T09:13:43;5.35;;;0.70;;
24409;SDS011;12543;53.364;-1.504;2022-12-15T09:16:12;1.83;;;0.70;;
24409;SDS011;12543;53.364;-1.504;2022-12-15T09:18:43;2.50;;;0.70;;
24409;SDS011;12543;53.364;-1.504;2022-12-15T09:21:12;3.42;;;0.98;;
24409;SDS011;12543;53.364;-1.504;2022-12-15T09:23:40;2.92;;;0.90;;
24409;SDS011;12543;53.364;-1.504;2022-12-15T09:26:09;3.30;;;1.00;;
24409;SDS011;12543;53.364;-1.504;2022-12-15T09:28:40;1.73;;;0.90;;
24409;SDS011;12543;53.364;-1.504;2022-12-15T09:31:16;2.50;;;0.82;;
24409;SDS011;12543;53.364;-1.504;2022-12-15T09:33:48;2.28;;;0.70;;
24409;SDS011;12543;53.364;-1.504;2022-12-15T09:36:17;1.88;;;0.80;;
24409;SDS011;12543;53.364;-1.504;2022-12-15T09:38:44;3.03;;;1.05;;
24409;SDS011;12543;53.364;-1.504;2022-12-15T09:43:58;3.80;;;1.40;;
24409;SDS011;12543;53.364;-1.504;2022-12-15T09:49:54;1.85;;;0.73;;
24409;SDS011;12543;53.364;-1.504;2022-12-15T09:55:04;3.00;;;0.85;;
24409;SDS011;12543;53.364;-1.504;2022-12-15T10:01:09;2.75;;;0.90;;
24409;SDS011;12543;53.364;-1.504;2022-12-15T10:04:06;1.88;;;0.75;;
24409;SDS011;12543;53.364;-1.504;2022-12-15T10:07:03;3.40;;;0.80;;
24409;SDS011;12543;53.364;-1.504;2022-12-15T10:09:31;3.95;;;1.00;;
24409;SDS011;12543;53.364;-1.504;2022-12-15T10:17:05;3.13;;;1.40;;
24409;SDS011;12543;53.364;-1.504;2022-12-15T10:22:02;3.00;;;1.33;;
24409;SDS011;12543;53.364;-1.504;2022-12-15T10:24:30;3.88;;;1.50;;
24409;SDS011;12543;53.364;-1.504;2022-12-15T10:27:28;6.53;;;2.05;;
24409;SDS011;12543;53.364;-1.504;2022-12-15T10:30:02;5.22;;;1.92;;
24409;SDS011;12543;53.364;-1.504;2022-12-15T10:35:31;4.40;;;1.85;;
24409;SDS011;12543;53.364;-1.504;2022-12-15T10:38:09;3.58;;;1.40;;
24409;SDS011;12543;53.364;-1.504;2022-12-15T10:40:54;4.13;;;1.33;;
24409;SDS011;12543;53.364;-1.504;2022-12-15T10:43:35;4.80;;;1.42;;
24409;SDS011;12543;53.364;-1.504;2022-12-15T10:46:11;4.57;;;1.25;;
24409;SDS011;12543;53.364;-1.504;2022-12-15T10:48:42;9.27;;;1.70;;
24409;SDS011;12543;53.364;-1.504;2022-12-15T10:51:30;4.88;;;1.33;;
24409;SDS011;12543;53.364;-1.504;2022-12-15T10:59:35;4.90;;;1.25;;
24409;SDS011;12543;53.364;-1.504;2022-12-15T11:07:43;6.88;;;1.70;;
24409;SDS011;12543;53.364;-1.504;2022-12-15T11:12:53;6.93;;;1.58;;
24409;SDS011;12543;53.364;-1.504;2022-12-15T11:20:47;2.67;;;1.30;;
24409;SDS011;12543;53.364;-1.504;2022-12-15T11:29:17;3.20;;;1.30;;
24409;SDS011;12543;53.364;-1.504;2022-12-15T11:31:47;4.85;;;1.45;;
24409;SDS011;12543;53.364;-1.504;2022-12-15T11:34:17;3.60;;;1.17;;
24409;SDS011;12543;53.364;-1.504;2022-12-15T11:42:21;2.85;;;1.23;;
24409;SDS011;12543;53.364;-1.504;2022-12-15T11:56:31;3.08;;;1.30;;
24409;SDS011;12543;53.364;-1.504;2022-12-15T12:05:11;3.88;;;1.40;;
24409;SDS011;12543;53.364;-1.504;2022-12-15T12:07:44;2.20;;;1.08;;
24409;SDS011;12543;53.364;-1.504;2022-12-15T12:15:50;2.65;;;1.00;;
24409;SDS011;12543;53.364;-1.504;2022-12-15T12:18:36;4.03;;;1.00;;
24409;SDS011;12543;53.364;-1.504;2022-12-15T12:21:28;2.67;;;1.00;;
24409;SDS011;12543;53.364;-1.504;2022-12-15T12:26:54;2.08;;;0.82;;
24409;SDS011;12543;53.364;-1.504;2022-12-15T12:29:29;4.25;;;0.90;;
24409;SDS011;12543;53.364;-1.504;2022-12-15T12:37:18;3.50;;;1.10;;
24409;SDS011;12543;53.364;-1.504;2022-12-15T12:39:49;2.28;;;0.90;;
24409;SDS011;12543;53.364;-1.504;2022-12-15T12:42:39;4.32;;;0.98;;
24409;SDS011;12543;53.364;-1.504;2022-12-15T12:45:15;3.47;;;1.17;;
24409;SDS011;12543;53.364;-1.504;2022-12-15T12:47:45;3.17;;;1.30;;
24409;SDS011;12543;53.364;-1.504;2022-12-15T12:50:24;4.32;;;1.38;;
24409;SDS011;12543;53.364;-1.504;2022-12-15T12:52:58;3.08;;;1.50;;
24409;SDS011;12543;53.364;-1.504;2022-12-15T12:57:58;3.67;;;1.40;;
24409;SDS011;12543;53.364;-1.504;2022-12-15T13:00:29;6.32;;;1.42;;
24409;SDS011;12543;53.364;-1.504;2022-12-15T13:05:46;3.08;;;1.52;;
24409;SDS011;12543;53.364;-1.504;2022-12-15T13:08:25;3.95;;;1.63;;
24409;SDS011;12543;53.364;-1.504;2022-12-15T13:10:54;5.15;;;1.23;;
24409;SDS011;12543;53.364;-1.504;2022-12-15T13:16:03;4.28;;;1.40;;
24409;SDS011;12543;53.364;-1.504;2022-12-15T13:18:56;3.95;;;1.15;;
24409;SDS011;12543;53.364;-1.504;2022-12-15T13:35:14;3.90;;;1.40;;
24409;SDS011;12543;53.364;-1.504;2022-12-15T13:38:02;4.35;;;1.40;;
24409;SDS011;12543;53.364;-1.504;2022-12-15T13:45:52;4.78;;;1.50;;
24409;SDS011;12543;53.364;-1.504;2022-12-15T13:48:40;7.63;;;1.70;;
24409;SDS011;12543;53.364;-1.504;2022-12-15T13:51:33;9.02;;;1.63;;
24409;SDS011;12543;53.364;-1.504;2022-12-15T13:56:51;4.05;;;1.73;;
24409;SDS011;12543;53.364;-1.504;2022-12-15T13:59:27;4.97;;;1.63;;
24409;SDS011;12543;53.364;-1.504;2022-12-15T14:01:59;1.75;;;1.23;;
24409;SDS011;12543;53.364;-1.504;2022-12-15T14:04:26;5.07;;;1.65;;
24409;SDS011;12543;53.364;-1.504;2022-12-15T14:06:54;5.65;;;1.80;;
24409;SDS011;12543;53.364;-1.504;2022-12-15T14:09:34;6.47;;;2.08;;
24409;SDS011;12543;53.364;-1.504;2022-12-15T14:12:06;5.13;;;2.22;;
24409;SDS011;12543;53.364;-1.504;2022-12-15T14:14:42;6.82;;;2.58;;
24409;SDS011;12543;53.364;-1.504;2022-12-15T14:17:15;5.30;;;2.40;;
24409;SDS011;12543;53.364;-1.504;2022-12-15T14:19:44;4.05;;;1.77;;
24409;SDS011;12543;53.364;-1.504;2022-12-15T14:22:23;4.25;;;2.25;;
24409;SDS011;12543;53.364;-1.504;2022-12-15T14:24:59;4.53;;;1.83;;
24409;SDS011;12543;53.364;-1.504;2022-12-15T14:27:38;5.55;;;2.10;;
24409;SDS011;12543;53.364;-1.504;2022-12-15T14:32:49;3.33;;;1.88;;
24409;SDS011;12543;53.364;-1.504;2022-12-15T14:38:02;5.57;;;2.17;;
24409;SDS011;12543;53.364;-1.504;2022-12-15T14:40:33;4.28;;;2.10;;
24409;SDS011;12543;53.364;-1.504;2022-12-15T14:43:03;5.75;;;2.00;;
24409;SDS011;12543;53.364;-1.504;2022-12-15T14:45:32;3.72;;;1.70;;
24409;SDS011;12543;53.364;-1.504;2022-12-15T14:48:01;4.32;;;2.00;;
24409;SDS011;12543;53.364;-1.504;2022-12-15T14:50:52;3.55;;;1.40;;
24409;SDS011;12543;53.364;-1.504;2022-12-15T14:53:20;8.73;;;2.07;;
24409;SDS011;12543;53.364;-1.504;2022-12-15T14:55:56;4.07;;;1.80;;
24409;SDS011;12543;53.364;-1.504;2022-12-15T15:00:59;4.25;;;2.17;;
24409;SDS011;12543;53.364;-1.504;2022-12-15T15:06:26;4.03;;;2.15;;
24409;SDS011;12543;53.364;-1.504;2022-12-15T15:09:01;6.60;;;2.63;;
24409;SDS011;12543;53.364;-1.504;2022-12-15T15:11:35;6.60;;;2.92;;
24409;SDS011;12543;53.364;-1.504;2022-12-15T15:14:11;3.95;;;2.60;;
24409;SDS011;12543;53.364;-1.504;2022-12-15T15:16:42;4.82;;;2.55;;
24409;SDS011;12543;53.364;-1.504;2022-12-15T15:19:15;6.78;;;2.63;;
24409;SDS011;12543;53.364;-1.504;2022-12-15T15:21:47;7.93;;;2.45;;
24409;SDS011;12543;53.364;-1.504;2022-12-15T15:26:41;5.57;;;2.35;;
24409;SDS011;12543;53.364;-1.504;2022-12-15T15:32:16;5.30;;;2.65;;
24409;SDS011;12543;53.364;-1.504;2022-12-15T15:34:43;4.72;;;2.58;;
24409;SDS011;12543;53.364;-1.504;2022-12-15T15:39:43;6.78;;;3.08;;
24409;SDS011;12543;53.364;-1.504;2022-12-15T15:42:13;6.22;;;3.05;;
24409;SDS011;12543;53.364;-1.504;2022-12-15T15:44:40;5.75;;;3.13;;
24409;SDS011;12543;53.364;-1.504;2022-12-15T15:47:23;7.32;;;3.00;;
24409;SDS011;12543;53.364;-1.504;2022-12-15T15:49:54;6.88;;;3.00;;
24409;SDS011;12543;53.364;-1.504;2022-12-15T15:52:25;6.43;;;3.08;;
24409;SDS011;12543;53.364;-1.504;2022-12-15T15:54:55;4.85;;;2.55;;
24409;SDS011;12543;53.364;-1.504;2022-12-15T15:57:22;6.97;;;2.97;;
24409;SDS011;12543;53.364;-1.504;2022-12-15T15:59:49;4.85;;;2.65;;
24409;SDS011;12543;53.364;-1.504;2022-12-15T16:02:16;6.90;;;3.45;;
24409;SDS011;12543;53.364;-1.504;2022-12-15T16:04:43;5.57;;;3.67;;
24409;SDS011;12543;53.364;-1.504;2022-12-15T16:07:24;8.38;;;3.70;;
24409;SDS011;12543;53.364;-1.504;2022-12-15T16:09:54;5.43;;;3.55;;
24409;SDS011;12543;53.364;-1.504;2022-12-15T16:14:54;9.05;;;4.55;;
24409;SDS011;12543;53.364;-1.504;2022-12-15T16:17:21;9.25;;;4.72;;
24409;SDS011;12543;53.364;-1.504;2022-12-15T16:19:48;11.25;;;5.15;;
24409;SDS011;12543;53.364;-1.504;2022-12-15T16:22:17;12.82;;;5.47;;
24409;SDS011;12543;53.364;-1.504;2022-12-15T16:24:45;12.65;;;5.93;;
24409;SDS011;12543;53.364;-1.504;2022-12-15T16:27:13;10.55;;;5.35;;
24409;SDS011;12543;53.364;-1.504;2022-12-15T16:29:41;10.90;;;4.65;;
24409;SDS011;12543;53.364;-1.504;2022-12-15T16:32:08;9.80;;;4.13;;
24409;SDS011;12543;53.364;-1.504;2022-12-15T16:34:37;7.47;;;3.90;;
24409;SDS011;12543;53.364;-1.504;2022-12-15T16:37:04;6.82;;;3.20;;
24409;SDS011;12543;53.364;-1.504;2022-12-15T16:39:38;6.05;;;3.70;;
24409;SDS011;12543;53.364;-1.504;2022-12-15T16:42:07;7.18;;;3.88;;
24409;SDS011;12543;53.364;-1.504;2022-12-15T16:44:37;6.68;;;3.65;;
24409;SDS011;12543;53.364;-1.504;2022-12-15T16:47:04;8.13;;;4.10;;
24409;SDS011;12543;53.364;-1.504;2022-12-15T16:49:31;11.25;;;4.25;;
24409;SDS011;12543;53.364;-1.504;2022-12-15T16:52:07;8.05;;;4.70;;
24409;SDS011;12543;53.364;-1.504;2022-12-15T16:54:44;9.32;;;4.85;;
24409;SDS011;12543;53.364;-1.504;2022-12-15T16:57:14;8.13;;;4.43;;
24409;SDS011;12543;53.364;-1.504;2022-12-15T16:59:41;9.88;;;4.80;;
24409;SDS011;12543;53.364;-1.504;2022-12-15T17:02:21;8.98;;;4.07;;
24409;SDS011;12543;53.364;-1.504;2022-12-15T17:04:54;13.95;;;6.50;;
24409;SDS011;12543;53.364;-1.504;2022-12-15T17:07:22;9.40;;;5.28;;
24409;SDS011;12543;53.364;-1.504;2022-12-15T17:09:52;10.50;;;5.53;;
24409;SDS011;12543;53.364;-1.504;2022-12-15T17:12:19;11.88;;;5.88;;
24409;SDS011;12543;53.364;-1.504;2022-12-15T17:14:46;12.82;;;6.55;;
24409;SDS011;12543;53.364;-1.504;2022-12-15T17:17:14;10.85;;;6.28;;
24409;SDS011;12543;53.364;-1.504;2022-12-15T17:19:42;11.43;;;6.28;;
24409;SDS011;12543;53.364;-1.504;2022-12-15T17:22:29;12.05;;;6.38;;
24409;SDS011;12543;53.364;-1.504;2022-12-15T17:24:58;11.30;;;6.53;;
24409;SDS011;12543;53.364;-1.504;2022-12-15T17:27:25;12.18;;;6.78;;
24409;SDS011;12543;53.364;-1.504;2022-12-15T17:29:55;15.02;;;6.68;;
24409;SDS011;12543;53.364;-1.504;2022-12-15T17:32:24;12.02;;;6.15;;
24409;SDS011;12543;53.364;-1.504;2022-12-15T17:34:52;13.63;;;6.75;;
24409;SDS011;12543;53.364;-1.504;2022-12-15T17:37:19;15.68;;;6.68;;
24409;SDS011;12543;53.364;-1.504;2022-12-15T17:39:46;14.82;;;6.28;;
24409;SDS011;12543;53.364;-1.504;2022-12-15T17:42:17;13.85;;;6.80;;
24409;SDS011;12543;53.364;-1.504;2022-12-15T17:44:46;13.27;;;6.30;;
24409;SDS011;12543;53.364;-1.504;2022-12-15T17:47:14;13.25;;;6.75;;
24409;SDS011;12543;53.364;-1.504;2022-12-15T17:49:42;19.63;;;7.40;;
24409;SDS011;12543;53.364;-1.504;2022-12-15T17:54:42;12.55;;;6.05;;
24409;SDS011;12543;53.364;-1.504;2022-12-15T17:57:12;17.02;;;7.22;;
24409;SDS011;12543;53.364;-1.504;2022-12-15T17:59:39;12.77;;;6.50;;
24409;SDS011;12543;53.364;-1.504;2022-12-15T18:02:27;11.85;;;6.25;;
24409;SDS011;12543;53.364;-1.504;2022-12-15T18:04:54;12.10;;;6.88;;
24409;SDS011;12543;53.364;-1.504;2022-12-15T18:07:22;11.07;;;5.95;;
24409;SDS011;12543;53.364;-1.504;2022-12-15T18:09:49;13.82;;;6.57;;
24409;SDS011;12543;53.364;-1.504;2022-12-15T18:12:18;11.30;;;6.55;;